Time;durP1;ratioP1;P1;durP2;ratioP2;P2;SDS_P1;SDS_P2;PMS_P1;PMS_P2;Temp;Humidity;BMP_temperature;BMP_pressure;BME280_temperature;BME280_humidity;BME280_pressure;Samples;Min_cycle;Max_cycle;Signal;HPM_P1;HPM_P2
2022/01/10 00:00:16;;;;;;;10.35;4.95;;;9.20;78.10;;;;;;5048587;28;20111;-76
2022/01/10 00:02:48;;;;;;;12.73;4.88;;;9.20;78.10;;;;;;5048135;28;20106;-76
2022/01/10 00:05:14;;;;;;;14.60;5.57;;;9.20;78.10;;;;;;5063444;28;20028;-76
2022/01/10 00:07:40;;;;;;;12.80;5.18;;;9.20;78.10;;;;;;5067938;28;20143;-75
2022/01/10 00:10:07;;;;;;;11.25;4.55;;;9.20;78.10;;;;;;5067303;28;20028;-75
2022/01/10 00:12:33;;;;;;;11.98;5.38;;;9.20;78.10;;;;;;5067599;28;20535;-75
2022/01/10 00:14:59;;;;;;;11.20;4.63;;;9.20;78.10;;;;;;5049826;28;20381;-75
2022/01/10 00:17:25;;;;;;;11.18;5.30;;;9.20;78.10;;;;;;5058943;28;20115;-75
2022/01/10 00:19:51;;;;;;;11.52;4.47;;;9.20;78.20;;;;;;5067469;28;20037;-75
2022/01/10 00:22:18;;;;;;;13.82;6.10;;;9.20;78.20;;;;;;5068275;28;20028;-75
2022/01/10 00:24:44;;;;;;;9.32;4.22;;;9.20;78.20;;;;;;5067564;28;20055;-75
2022/01/10 00:27:10;;;;;;;9.48;5.38;;;9.10;78.00;;;;;;5049735;28;20476;-75
2022/01/10 00:29:36;;;;;;;11.93;4.68;;;9.10;78.00;;;;;;5067549;28;20549;-76
2022/01/10 00:32:03;;;;;;;13.25;5.65;;;9.10;78.10;;;;;;5068256;28;20350;-75
2022/01/10 00:34:29;;;;;;;10.93;5.07;;;9.20;78.20;;;;;;5058091;28;20492;-75
2022/01/10 00:36:55;;;;;;;13.27;5.32;;;9.20;78.30;;;;;;5029514;28;20067;-75
2022/01/10 00:39:21;;;;;;;17.63;5.57;;;9.10;78.10;;;;;;5040781;28;20472;-75
2022/01/10 00:41:47;;;;;;;11.38;5.22;;;9.20;78.80;;;;;;5067415;28;20522;-75
2022/01/10 00:44:14;;;;;;;12.10;4.65;;;9.10;78.20;;;;;;5059272;28;20029;-75
2022/01/10 00:46:40;;;;;;;13.10;4.78;;;9.10;78.20;;;;;;5046608;28;20033;-75
2022/01/10 00:49:07;;;;;;;13.35;5.25;;;9.20;78.30;;;;;;5030176;28;20036;-75
2022/01/10 00:51:33;;;;;;;13.27;5.35;;;9.20;78.40;;;;;;5049428;28;20420;-75
2022/01/10 00:54:00;;;;;;;11.02;5.35;;;9.10;78.20;;;;;;5049280;28;20033;-75
2022/01/10 00:56:26;;;;;;;12.07;6.13;;;9.10;78.20;;;;;;5049490;28;20036;-75
2022/01/10 00:58:52;;;;;;;9.18;4.88;;;9.20;78.40;;;;;;5049174;28;20119;-75
2022/01/10 01:01:18;;;;;;;10.65;6.13;;;9.10;78.20;;;;;;5067647;28;20380;-75
2022/01/10 01:03:46;;;;;;;9.77;4.78;;;9.10;78.20;;;;;;5065389;28;20025;-75
2022/01/10 01:06:14;;;;;;;11.50;5.07;;;9.10;78.20;;;;;;5048707;28;20043;-75
2022/01/10 01:08:41;;;;;;;10.40;4.82;;;9.10;78.30;;;;;;5066576;28;20055;-74
2022/01/10 01:13:58;;;;;;;11.80;4.65;;;9.10;78.30;;;;;;5048422;28;20043;-75
2022/01/10 01:24:29;;;;;;;11.70;5.15;;;9.10;78.30;;;;;;5048293;28;20571;-75
2022/01/10 01:26:55;;;;;;;10.32;4.57;;;9.10;78.30;;;;;;5067127;28;20162;-75
2022/01/10 01:29:27;;;;;;;12.10;4.35;;;9.10;78.30;;;;;;5065215;28;20024;-75
2022/01/10 01:31:54;;;;;;;11.55;5.18;;;9.10;78.30;;;;;;5045391;28;20032;-75
2022/01/10 01:34:22;;;;;;;11.25;4.43;;;9.10;78.40;;;;;;5060726;28;20488;-75
2022/01/10 01:36:52;;;;;;;11.82;4.57;;;9.00;78.20;;;;;;5065598;28;20131;-75
2022/01/10 01:39:22;;;;;;;10.20;4.25;;;9.10;78.40;;;;;;5065670;28;20222;-75
2022/01/10 01:42:00;;;;;;;11.98;4.95;;;9.10;78.40;;;;;;5047781;28;20131;-75
2022/01/10 01:44:26;;;;;;;9.93;4.10;;;9.10;78.40;;;;;;5048355;28;20498;-74
2022/01/10 01:46:52;;;;;;;11.07;5.10;;;9.10;78.40;;;;;;5048972;28;20060;-74
2022/01/10 01:49:18;;;;;;;11.90;4.65;;;9.10;78.40;;;;;;5048050;28;20032;-75
2022/01/10 01:51:44;;;;;;;11.82;4.45;;;9.10;78.40;;;;;;5039659;28;20086;-75
2022/01/10 01:54:11;;;;;;;8.60;4.60;;;9.10;78.40;;;;;;5041736;28;20098;-75
2022/01/10 01:56:38;;;;;;;10.70;4.28;;;9.10;78.40;;;;;;5028336;28;20045;-75
2022/01/10 01:59:06;;;;;;;12.80;4.72;;;9.10;78.40;;;;;;5034584;28;20078;-74
2022/01/10 02:01:32;;;;;;;9.55;4.25;;;9.10;78.40;;;;;;5012171;28;20037;-75
2022/01/10 02:03:58;;;;;;;8.27;4.80;;;9.10;78.50;;;;;;5044759;28;20057;-75
2022/01/10 02:06:28;;;;;;;11.07;4.18;;;9.10;78.40;;;;;;5044976;28;20421;-75
2022/01/10 02:08:54;;;;;;;9.35;4.53;;;9.00;78.30;;;;;;5045024;28;20403;-75
2022/01/10 02:11:20;;;;;;;9.02;3.63;;;9.00;78.30;;;;;;5045091;28;20044;-74
2022/01/10 02:13:46;;;;;;;8.63;3.70;;;9.10;78.50;;;;;;5044647;28;20068;-75
2022/01/10 02:16:45;;;;;;;10.00;4.40;;;9.00;78.30;;;;;;5044732;28;20360;-74
2022/01/10 02:19:34;;;;;;;10.82;3.67;;;9.00;78.30;;;;;;5058887;28;20708;-74
2022/01/10 02:22:00;;;;;;;8.73;3.00;;;9.10;78.40;;;;;;5035317;28;20123;-74
2022/01/10 02:24:33;;;;;;;9.45;5.25;;;9.00;78.30;;;;;;5053738;28;20154;-75
2022/01/10 02:27:02;;;;;;;10.95;4.22;;;9.00;78.30;;;;;;5047946;28;20044;-75
2022/01/10 02:29:36;;;;;;;10.95;4.15;;;9.00;78.40;;;;;;5048145;28;20040;-76
2022/01/10 02:32:03;;;;;;;10.70;3.38;;;9.00;78.40;;;;;;5041096;28;20041;-75
2022/01/10 02:34:29;;;;;;;6.50;3.25;;;9.00;78.40;;;;;;5049268;28;20101;-75
2022/01/10 02:36:58;;;;;;;8.85;4.30;;;9.00;78.40;;;;;;5067233;28;20036;-76
2022/01/10 02:39:26;;;;;;;7.70;3.70;;;9.00;78.40;;;;;;5058025;28;20483;-76
2022/01/10 02:41:52;;;;;;;8.02;3.10;;;9.00;78.40;;;;;;5049022;28;20055;-75
2022/01/10 02:44:18;;;;;;;8.75;3.85;;;9.10;78.60;;;;;;5066008;28;20476;-75
2022/01/10 02:46:46;;;;;;;15.95;4.75;;;9.00;78.40;;;;;;5028196;28;20124;-75
2022/01/10 02:49:28;;;;;;;9.32;3.78;;;9.10;78.60;;;;;;5052129;28;20036;-75
2022/01/10 02:51:57;;;;;;;9.85;4.68;;;9.10;78.60;;;;;;5043061;28;20377;-75
2022/01/10 02:54:25;;;;;;;9.05;3.63;;;9.10;78.50;;;;;;5056001;28;20040;-75
2022/01/10 02:56:54;;;;;;;9.57;3.42;;;9.10;78.60;;;;;;5056268;28;20403;-75
2022/01/10 02:59:22;;;;;;;10.73;4.03;;;9.10;78.60;;;;;;5075236;28;20032;-75
2022/01/10 03:01:49;;;;;;;7.93;3.97;;;9.10;78.60;;;;;;5059001;28;20032;-75
2022/01/10 03:04:16;;;;;;;10.32;4.00;;;9.00;78.40;;;;;;5075157;28;20024;-75
2022/01/10 03:06:44;;;;;;;10.02;3.35;;;9.10;78.60;;;;;;5041819;28;20075;-75
2022/01/10 03:09:11;;;;;;;10.40;3.78;;;9.10;78.60;;;;;;5057405;28;20495;-75
2022/01/10 03:11:39;;;;;;;13.63;4.38;;;9.00;78.50;;;;;;5075438;28;20040;-75
2022/01/10 03:14:06;;;;;;;6.78;3.70;;;9.00;78.40;;;;;;5057869;28;20033;-75
2022/01/10 03:16:32;;;;;;;9.38;3.38;;;9.00;78.40;;;;;;5054929;28;20024;-75
2022/01/10 03:18:58;;;;;;;8.02;3.47;;;9.00;78.50;;;;;;5072819;28;20249;-74
2022/01/10 03:21:24;;;;;;;9.27;3.85;;;9.00;78.50;;;;;;5073738;28;20116;-75
2022/01/10 03:23:51;;;;;;;6.53;3.33;;;9.10;78.70;;;;;;5064685;28;20400;-75
2022/01/10 03:26:19;;;;;;;6.65;2.83;;;9.00;79.00;;;;;;5055699;28;20025;-75
2022/01/10 03:28:47;;;;;;;6.60;4.28;;;9.00;78.50;;;;;;5055902;28;20234;-75
2022/01/10 03:31:13;;;;;;;7.07;3.03;;;9.10;78.70;;;;;;5055782;28;20115;-74
2022/01/10 03:33:41;;;;;;;9.35;2.97;;;9.00;78.50;;;;;;5055296;28;20127;-74
2022/01/10 03:36:07;;;;;;;6.63;3.00;;;9.00;78.60;;;;;;5055436;28;20128;-74
2022/01/10 03:38:34;;;;;;;6.93;3.28;;;9.00;78.60;;;;;;5055651;28;20434;-74
2022/01/10 03:41:00;;;;;;;7.30;3.15;;;9.10;78.80;;;;;;5055448;28;20052;-74
2022/01/10 03:43:26;;;;;;;9.85;3.83;;;9.10;78.80;;;;;;5055635;28;20472;-74
2022/01/10 03:45:52;;;;;;;5.78;3.40;;;9.10;78.80;;;;;;5055294;28;20024;-74
2022/01/10 03:48:18;;;;;;;6.95;3.25;;;9.10;78.70;;;;;;5055200;28;20040;-74
2022/01/10 03:50:45;;;;;;;4.90;2.85;;;9.10;78.70;;;;;;5055287;28;20028;-74
2022/01/10 03:53:12;;;;;;;7.88;2.95;;;9.10;78.70;;;;;;5055283;28;20399;-74
2022/01/10 03:55:39;;;;;;;9.05;2.83;;;9.10;78.80;;;;;;5045629;28;20036;-74
2022/01/10 03:58:06;;;;;;;6.07;3.38;;;9.00;78.60;;;;;;5054854;28;20098;-74
2022/01/10 04:00:33;;;;;;;9.32;3.70;;;9.10;78.80;;;;;;5072700;28;20029;-74
2022/01/10 04:03:04;;;;;;;9.88;4.13;;;9.10;78.80;;;;;;5055211;28;20082;-75
2022/01/10 04:05:58;;;;;;;4.65;2.78;;;9.10;78.80;;;;;;5054271;28;20032;-74
2022/01/10 04:08:25;;;;;;;7.55;2.88;;;9.00;79.10;;;;;;5054828;28;20025;-75
2022/01/10 04:10:52;;;;;;;6.82;3.17;;;9.00;78.60;;;;;;5038437;28;20127;-74
2022/01/10 04:13:18;;;;;;;9.02;3.47;;;9.10;78.80;;;;;;5054736;28;20044;-74
2022/01/10 04:15:45;;;;;;;4.78;2.45;;;9.00;78.60;;;;;;5054869;28;20039;-74
2022/01/10 04:18:11;;;;;;;7.80;3.30;;;9.00;78.60;;;;;;5072225;28;20123;-74
2022/01/10 04:20:37;;;;;;;7.95;3.50;;;9.00;78.60;;;;;;5054547;28;20028;-74
2022/01/10 04:23:03;;;;;;;6.65;2.85;;;9.00;78.70;;;;;;5054887;28;20487;-74
2022/01/10 04:25:29;;;;;;;6.18;2.90;;;9.00;78.70;;;;;;5045188;28;20291;-74
2022/01/10 04:27:55;;;;;;;6.00;3.10;;;9.00;78.70;;;;;;5072424;28;20043;-74
2022/01/10 04:30:29;;;;;;;6.22;2.90;;;9.00;78.70;;;;;;5054551;28;20566;-74
2022/01/10 04:33:00;;;;;;;6.50;2.38;;;9.10;78.90;;;;;;5037863;28;20411;-74
2022/01/10 04:35:26;;;;;;;6.60;2.75;;;9.00;78.70;;;;;;5054677;28;20381;-74
2022/01/10 04:37:53;;;;;;;7.05;3.25;;;9.00;78.70;;;;;;5072519;28;20028;-75
2022/01/10 04:40:20;;;;;;;5.20;2.78;;;9.00;78.70;;;;;;5054373;28;20024;-74
2022/01/10 04:42:47;;;;;;;7.60;3.45;;;9.10;78.90;;;;;;5071873;28;20526;-75
2022/01/10 04:45:13;;;;;;;6.43;2.40;;;9.10;78.90;;;;;;5072300;28;20033;-75
2022/01/10 04:47:39;;;;;;;7.38;2.97;;;9.00;78.70;;;;;;5054199;28;20484;-74
2022/01/10 04:52:48;;;;;;;5.05;2.47;;;9.00;78.70;;;;;;5053734;28;20396;-75
2022/01/10 04:55:15;;;;;;;7.55;2.78;;;9.00;78.70;;;;;;5054120;28;20033;-74
2022/01/10 04:57:41;;;;;;;7.03;2.60;;;9.00;78.70;;;;;;5044603;28;20052;-75
2022/01/10 05:00:10;;;;;;;7.95;3.13;;;9.00;78.80;;;;;;5053611;28;20031;-75
2022/01/10 05:02:37;;;;;;;7.57;2.85;;;9.00;78.80;;;;;;5054327;28;20437;-74
2022/01/10 05:05:03;;;;;;;5.38;2.65;;;9.00;78.80;;;;;;5072444;28;20033;-74
2022/01/10 05:07:30;;;;;;;9.90;2.78;;;9.00;78.80;;;;;;5054288;28;20028;-74
2022/01/10 05:09:57;;;;;;;4.75;2.35;;;9.00;78.80;;;;;;5054210;28;20028;-74
2022/01/10 05:12:25;;;;;;;8.40;2.75;;;9.00;78.80;;;;;;5053986;28;20040;-74
2022/01/10 05:14:51;;;;;;;6.22;2.72;;;9.00;78.80;;;;;;5053890;28;20032;-74
2022/01/10 05:17:22;;;;;;;6.03;2.42;;;9.00;78.80;;;;;;5053338;28;20040;-74
2022/01/10 05:19:48;;;;;;;7.47;2.70;;;9.00;78.80;;;;;;5053244;28;20123;-75
2022/01/10 05:22:15;;;;;;;5.10;3.35;;;9.00;78.80;;;;;;5070247;28;20033;-75
2022/01/10 05:24:41;;;;;;;7.95;3.15;;;9.00;78.80;;;;;;5053574;28;20037;-74
2022/01/10 05:27:07;;;;;;;7.28;2.97;;;9.00;78.80;;;;;;5070401;28;20028;-73
2022/01/10 05:29:33;;;;;;;7.53;3.72;;;9.00;78.80;;;;;;5044233;28;20388;-76
2022/01/10 05:32:00;;;;;;;6.53;2.97;;;9.00;78.80;;;;;;5053412;28;20115;-76
2022/01/10 05:34:39;;;;;;;6.32;2.28;;;9.00;78.80;;;;;;5053397;28;20103;-75
2022/01/10 05:37:05;;;;;;;7.68;3.47;;;9.10;79.00;;;;;;5053456;28;20024;-76
2022/01/10 05:39:33;;;;;;;7.38;2.75;;;9.10;79.00;;;;;;5036586;28;20119;-75
2022/01/10 05:41:59;;;;;;;7.90;2.95;;;9.10;79.00;;;;;;5071080;28;20025;-75
2022/01/10 05:44:26;;;;;;;7.70;2.90;;;9.00;78.80;;;;;;5036715;28;20493;-75
2022/01/10 05:46:53;;;;;;;5.10;2.50;;;9.10;79.00;;;;;;5046580;28;20472;-76
2022/01/10 05:49:26;;;;;;;4.97;2.25;;;9.10;79.00;;;;;;5048378;28;20369;-75
2022/01/10 05:51:52;;;;;;;8.40;2.30;;;9.10;79.00;;;;;;5066486;28;20115;-76
2022/01/10 05:54:44;;;;;;;6.97;2.67;;;9.10;79.10;;;;;;5065486;28;20037;-75
2022/01/10 05:57:10;;;;;;;5.15;2.10;;;9.10;79.00;;;;;;5067597;28;20053;-76
2022/01/10 05:59:43;;;;;;;5.97;2.30;;;9.10;79.00;;;;;;5049132;28;20029;-76
2022/01/10 06:02:09;;;;;;;6.00;2.90;;;9.10;79.00;;;;;;5056639;28;20033;-76
2022/01/10 06:04:35;;;;;;;8.15;2.30;;;9.00;78.80;;;;;;5064508;28;20082;-76
2022/01/10 06:07:27;;;;;;;5.78;2.88;;;9.00;78.80;;;;;;5062743;28;20036;-75
2022/01/10 06:09:55;;;;;;;4.47;2.40;;;9.10;79.00;;;;;;5048322;28;20036;-76
2022/01/10 06:12:21;;;;;;;9.93;2.97;;;9.00;78.80;;;;;;5047998;28;20585;-75
2022/01/10 06:14:47;;;;;;;6.28;2.92;;;9.10;79.10;;;;;;5048095;28;20436;-76
2022/01/10 06:17:14;;;;;;;5.63;2.55;;;9.10;79.10;;;;;;5048506;28;20090;-76
2022/01/10 06:19:39;;;;;;;5.53;2.05;;;9.10;79.10;;;;;;5032834;28;20029;-75
2022/01/10 06:22:06;;;;;;;6.95;3.20;;;9.00;78.80;;;;;;5048037;28;20382;-76
2022/01/10 06:24:34;;;;;;;4.60;2.30;;;9.10;79.10;;;;;;5047225;28;20051;-76
2022/01/10 06:27:00;;;;;;;5.63;2.50;;;9.10;79.00;;;;;;5065793;28;20032;-75
2022/01/10 06:29:26;;;;;;;6.85;2.63;;;9.10;79.00;;;;;;5052184;28;20493;-76
2022/01/10 06:31:52;;;;;;;6.45;2.92;;;9.10;79.00;;;;;;5032553;28;20392;-75
2022/01/10 06:34:18;;;;;;;5.93;2.17;;;9.10;79.00;;;;;;5053236;28;20033;-76
2022/01/10 06:36:45;;;;;;;6.80;2.15;;;9.10;78.90;;;;;;5070828;28;20033;-75
2022/01/10 06:39:12;;;;;;;5.75;3.00;;;9.10;78.90;;;;;;5049390;28;20029;-75
2022/01/10 06:41:41;;;;;;;5.28;2.15;;;9.10;78.90;;;;;;5049009;28;20044;-76
2022/01/10 06:44:07;;;;;;;8.38;2.75;;;9.10;78.90;;;;;;5053254;28;20025;-75
2022/01/10 06:46:34;;;;;;;4.05;2.55;;;9.20;79.10;;;;;;5052676;28;20062;-76
2022/01/10 06:49:01;;;;;;;5.32;2.60;;;9.20;79.10;;;;;;5062234;28;20024;-74
2022/01/10 06:51:29;;;;;;;5.25;2.72;;;9.10;78.90;;;;;;5043897;28;20068;-74
2022/01/10 06:53:55;;;;;;;5.70;2.40;;;9.10;78.90;;;;;;5049640;28;20475;-74
2022/01/10 06:56:22;;;;;;;6.18;2.72;;;9.10;78.90;;;;;;5048669;28;20124;-74
2022/01/10 06:58:48;;;;;;;5.75;2.63;;;9.20;79.10;;;;;;5046947;28;20124;-76
2022/01/10 07:01:20;;;;;;;6.13;2.63;;;9.10;78.80;;;;;;5064968;28;20029;-74
2022/01/10 07:03:52;;;;;;;7.85;2.90;;;9.10;78.90;;;;;;5055012;28;20033;-74
2022/01/10 07:06:21;;;;;;;6.22;2.60;;;9.10;78.80;;;;;;5048108;28;20029;-74
2022/01/10 07:08:48;;;;;;;6.47;2.60;;;9.20;79.10;;;;;;5048009;28;20033;-74
2022/01/10 07:11:15;;;;;;;5.05;2.50;;;9.10;78.80;;;;;;5048968;28;20083;-75
2022/01/10 07:13:43;;;;;;;6.07;2.53;;;9.10;78.90;;;;;;5041111;28;20033;-75
2022/01/10 07:16:10;;;;;;;6.38;2.80;;;9.10;78.80;;;;;;5043955;28;20101;-76
2022/01/10 07:18:36;;;;;;;5.68;2.60;;;9.10;78.90;;;;;;5054268;28;20040;-75
2022/01/10 07:21:11;;;;;;;8.02;3.28;;;9.20;79.00;;;;;;5047271;28;20413;-75
2022/01/10 07:23:37;;;;;;;12.05;4.28;;;9.10;79.00;;;;;;5056550;28;20496;-76
2022/01/10 07:26:03;;;;;;;13.40;4.05;;;9.30;80.10;;;;;;5049802;28;20029;-74
2022/01/10 07:28:29;;;;;;;9.00;4.03;;;9.50;80.80;;;;;;5048413;28;20503;-75
2022/01/10 07:30:55;;;;;;;7.53;3.63;;;9.80;81.10;;;;;;5045488;28;20542;-76
2022/01/10 07:33:21;;;;;;;10.77;4.20;;;10.10;81.20;;;;;;5044295;28;20037;-76
2022/01/10 07:35:47;;;;;;;8.95;3.58;;;10.20;81.20;;;;;;5048104;28;20396;-75
2022/01/10 07:38:13;;;;;;;9.45;3.75;;;10.30;81.30;;;;;;5042490;28;20037;-75
2022/01/10 07:40:39;;;;;;;10.25;3.92;;;10.20;81.20;;;;;;5027426;28;20048;-75
2022/01/10 07:43:05;;;;;;;9.57;4.03;;;10.30;81.70;;;;;;5043014;28;20123;-76
2022/01/10 07:45:37;;;;;;;11.50;3.33;;;10.40;82.10;;;;;;5045804;28;20104;-76
2022/01/10 07:48:05;;;;;;;7.35;3.60;;;10.40;82.10;;;;;;5044353;28;20447;-76
2022/01/10 07:50:31;;;;;;;7.55;3.38;;;10.40;82.20;;;;;;5043086;28;20299;-76
2022/01/10 07:52:57;;;;;;;8.52;3.67;;;10.40;82.30;;;;;;5047585;28;20044;-77
2022/01/10 07:55:22;;;;;;;9.75;3.97;;;10.40;82.50;;;;;;5046294;28;20021;-77
2022/01/10 07:57:48;;;;;;;9.65;3.88;;;10.30;82.50;;;;;;5045213;28;20223;-77
2022/01/10 08:00:15;;;;;;;7.40;3.58;;;10.30;82.60;;;;;;5046069;28;20031;-76
2022/01/10 08:02:41;;;;;;;10.43;4.03;;;10.30;82.80;;;;;;5034704;28;20099;-76
2022/01/10 08:05:09;;;;;;;8.32;4.00;;;10.30;83.00;;;;;;5026400;28;20333;-76
2022/01/10 08:07:35;;;;;;;7.95;3.92;;;10.20;83.00;;;;;;5025364;28;20041;-76
2022/01/10 08:10:04;;;;;;;10.98;3.97;;;10.20;83.10;;;;;;5028706;28;20029;-76
2022/01/10 08:12:30;;;;;;;8.43;4.25;;;10.20;83.20;;;;;;5027598;28;20119;-76
2022/01/10 08:14:56;;;;;;;6.10;3.63;;;10.10;83.10;;;;;;5027221;28;20489;-75
2022/01/10 08:17:25;;;;;;;7.32;3.75;;;10.10;83.20;;;;;;5028520;28;20099;-75
2022/01/10 08:19:51;;;;;;;5.90;4.03;;;10.10;83.30;;;;;;5027476;28;20097;-75
2022/01/10 08:22:17;;;;;;;5.80;3.53;;;10.00;83.10;;;;;;5027551;28;20366;-75
2022/01/10 08:24:43;;;;;;;6.80;4.00;;;10.00;83.20;;;;;;5028154;28;20029;-74
2022/01/10 08:27:09;;;;;;;9.82;4.05;;;10.00;83.20;;;;;;5026176;28;20422;-75
2022/01/10 08:29:34;;;;;;;5.82;3.42;;;10.00;83.20;;;;;;5027151;28;20059;-75
2022/01/10 08:32:00;;;;;;;8.27;3.55;;;10.00;83.20;;;;;;5026272;28;20120;-75
2022/01/10 08:34:26;;;;;;;6.30;3.60;;;10.00;83.20;;;;;;5027596;28;20032;-74
2022/01/10 08:36:54;;;;;;;7.18;4.22;;;9.90;83.00;;;;;;5042589;28;20037;-75
2022/01/10 08:39:21;;;;;;;8.73;3.72;;;10.00;83.20;;;;;;5026134;28;20507;-75
2022/01/10 08:41:47;;;;;;;6.78;3.78;;;9.90;83.00;;;;;;5027329;28;20247;-74
2022/01/10 08:44:17;;;;;;;6.38;3.80;;;9.90;83.00;;;;;;5038901;28;20500;-75
2022/01/10 08:46:44;;;;;;;7.03;3.47;;;9.90;83.00;;;;;;5048452;28;20049;-74
2022/01/10 08:49:12;;;;;;;9.13;4.25;;;9.90;82.90;;;;;;5047102;28;20029;-74
2022/01/10 08:51:39;;;;;;;7.65;3.95;;;9.90;82.90;;;;;;5046836;28;20198;-74
2022/01/10 08:54:06;;;;;;;8.45;4.03;;;9.90;82.90;;;;;;5045740;28;20025;-74
2022/01/10 08:56:32;;;;;;;6.43;4.07;;;9.90;82.80;;;;;;5051013;28;20036;-74
2022/01/10 08:58:59;;;;;;;6.25;3.40;;;9.80;82.60;;;;;;5066925;28;20024;-74
2022/01/10 09:01:26;;;;;;;8.50;4.40;;;9.80;82.70;;;;;;5065906;28;20037;-74
2022/01/10 09:03:53;;;;;;;7.70;3.40;;;9.80;82.70;;;;;;5066917;28;20062;-73
2022/01/10 09:06:19;;;;;;;6.60;3.88;;;9.80;82.70;;;;;;5066822;28;20040;-74
2022/01/10 09:08:48;;;;;;;7.63;4.00;;;9.80;82.60;;;;;;5065918;28;20043;-74
2022/01/10 09:11:14;;;;;;;7.88;3.92;;;9.80;82.60;;;;;;5065473;28;20483;-74
2022/01/10 09:13:40;;;;;;;7.28;3.95;;;9.80;82.60;;;;;;5058838;28;20131;-74
2022/01/10 09:16:08;;;;;;;6.97;4.22;;;9.90;82.80;;;;;;5067083;28;20095;-74
2022/01/10 09:18:34;;;;;;;6.90;3.72;;;9.80;82.50;;;;;;5058181;28;20077;-74
2022/01/10 09:21:00;;;;;;;8.57;4.20;;;9.90;82.70;;;;;;5046418;28;20357;-74
2022/01/10 09:23:27;;;;;;;8.65;4.25;;;9.90;82.60;;;;;;5040401;28;20036;-74
2022/01/10 09:25:53;;;;;;;8.48;4.43;;;9.90;82.60;;;;;;5065840;28;20499;-75
2022/01/10 09:28:20;;;;;;;6.85;3.70;;;9.90;82.50;;;;;;5062454;28;20024;-75
2022/01/10 09:30:48;;;;;;;4.97;4.00;;;9.90;83.00;;;;;;5048431;28;20074;-75
2022/01/10 09:33:14;;;;;;;12.05;5.53;;;9.90;82.50;;;;;;5054687;28;20423;-76
2022/01/10 09:35:42;;;;;;;13.02;5.45;;;9.90;82.40;;;;;;5065511;28;20025;-74
2022/01/10 09:38:09;;;;;;;7.28;4.10;;;10.00;82.50;;;;;;5060251;28;20124;-74
2022/01/10 09:40:36;;;;;;;6.07;3.78;;;10.00;82.40;;;;;;5045874;28;20459;-75
2022/01/10 09:43:02;;;;;;;9.20;4.03;;;10.10;82.50;;;;;;5046009;28;20029;-75
2022/01/10 09:45:28;;;;;;;6.97;3.80;;;10.10;82.40;;;;;;5046478;28;20071;-75
2022/01/10 09:47:54;;;;;;;6.63;3.72;;;10.20;82.40;;;;;;5046179;28;20056;-75
2022/01/10 09:50:20;;;;;;;7.35;4.03;;;10.10;82.10;;;;;;5046180;28;20032;-75
2022/01/10 09:52:49;;;;;;;4.72;3.50;;;10.20;82.20;;;;;;5045430;28;20075;-75
2022/01/10 09:55:15;;;;;;;7.10;3.58;;;10.20;82.10;;;;;;5045962;28;20052;-74
2022/01/10 09:57:42;;;;;;;5.82;3.92;;;10.30;82.20;;;;;;5046082;28;20068;-73
2022/01/10 10:00:09;;;;;;;5.65;3.63;;;10.30;82.10;;;;;;5046262;28;20025;-75
2022/01/10 10:02:40;;;;;;;8.15;6.05;;;10.40;82.20;;;;;;5044457;28;20037;-75
2022/01/10 10:05:09;;;;;;;5.85;4.18;;;10.40;82.10;;;;;;5046145;28;20483;-75
2022/01/10 10:07:37;;;;;;;5.28;3.58;;;10.40;82.00;;;;;;5046653;28;20036;-75
2022/01/10 10:10:08;;;;;;;6.85;3.70;;;10.40;82.00;;;;;;5048872;28;20037;-75
2022/01/10 10:12:37;;;;;;;6.35;3.80;;;10.40;81.90;;;;;;5049027;28;20043;-77
2022/01/10 10:15:06;;;;;;;6.55;3.78;;;10.40;81.90;;;;;;5030805;28;20307;-74
2022/01/10 10:17:32;;;;;;;7.25;3.88;;;10.50;82.00;;;;;;5048395;28;20072;-75
2022/01/10 10:19:59;;;;;;;5.18;3.38;;;10.50;81.90;;;;;;5049287;28;20028;-74
2022/01/10 10:22:25;;;;;;;5.70;3.55;;;10.50;81.90;;;;;;5052836;28;20025;-75
2022/01/10 10:24:50;;;;;;;8.27;5.28;;;10.60;82.00;;;;;;5037261;28;20036;-76
2022/01/10 10:27:17;;;;;;;6.95;4.70;;;10.60;81.90;;;;;;5046884;28;20028;-75
2022/01/10 10:29:44;;;;;;;9.77;4.68;;;10.60;81.90;;;;;;5045764;28;20079;-75
2022/01/10 10:32:12;;;;;;;6.57;3.80;;;10.60;81.90;;;;;;5045445;28;20029;-76
2022/01/10 10:34:38;;;;;;;6.72;3.67;;;10.60;81.90;;;;;;5027962;28;20035;-76
2022/01/10 10:37:12;;;;;;;4.35;3.42;;;10.70;82.00;;;;;;5046251;28;20430;-75
2022/01/10 10:39:41;;;;;;;3.95;2.90;;;10.80;82.20;;;;;;5041362;28;20278;-74
2022/01/10 10:42:16;;;;;;;6.65;3.25;;;10.80;82.10;;;;;;5045934;28;20128;-74
2022/01/10 10:44:43;;;;;;;4.05;3.55;;;10.90;82.20;;;;;;5027939;28;20501;-74
2022/01/10 10:47:13;;;;;;;4.15;3.10;;;10.90;82.10;;;;;;5046274;28;20035;-75
2022/01/10 10:49:44;;;;;;;5.82;3.28;;;10.90;82.10;;;;;;5058270;28;20040;-74
2022/01/10 10:52:12;;;;;;;3.50;3.00;;;10.90;82.00;;;;;;5065091;28;20044;-73
2022/01/10 10:54:39;;;;;;;5.70;3.00;;;10.90;82.00;;;;;;5027600;28;20028;-75
2022/01/10 10:57:09;;;;;;;5.82;3.20;;;11.00;82.10;;;;;;5027528;28;20060;-74
2022/01/10 10:59:39;;;;;;;6.55;3.13;;;10.90;82.00;;;;;;5040224;28;20029;-74
2022/01/10 11:02:06;;;;;;;4.60;3.30;;;10.90;82.40;;;;;;5045659;28;20028;-74
2022/01/10 11:04:32;;;;;;;7.18;3.38;;;10.90;81.90;;;;;;5045505;28;20507;-74
2022/01/10 11:06:59;;;;;;;5.20;3.53;;;11.00;82.00;;;;;;5045782;28;20057;-74
2022/01/10 11:09:25;;;;;;;6.90;3.40;;;11.00;82.00;;;;;;5053775;28;20496;-75
2022/01/10 11:11:51;;;;;;;5.13;3.15;;;11.00;82.00;;;;;;5065315;28;20403;-75
2022/01/10 11:14:21;;;;;;;4.80;2.80;;;11.00;81.90;;;;;;5047102;28;20029;-75
2022/01/10 11:16:49;;;;;;;5.55;2.97;;;11.10;82.10;;;;;;5031457;28;20026;-75
2022/01/10 11:19:18;;;;;;;4.50;2.58;;;11.10;82.00;;;;;;5048927;28;20032;-75
2022/01/10 11:22:05;;;;;;;4.30;2.58;;;11.10;81.90;;;;;;5048976;28;20029;-74
2022/01/10 11:24:44;;;;;;;4.57;2.65;;;11.10;81.80;;;;;;5048070;28;20024;-75
2022/01/10 11:27:27;;;;;;;3.60;3.15;;;11.20;81.90;;;;;;5066697;28;20578;-75
2022/01/10 11:29:56;;;;;;;5.82;3.60;;;11.20;81.70;;;;;;5050109;28;20021;-75
2022/01/10 11:32:56;;;;;;;3.70;3.35;;;11.20;81.60;;;;;;5048029;28;20044;-76
2022/01/10 11:35:26;;;;;;;4.53;2.80;;;11.30;81.80;;;;;;5048785;28;20323;-75
2022/01/10 11:37:52;;;;;;;3.53;3.22;;;11.20;81.50;;;;;;5048422;28;20047;-75
2022/01/10 11:40:20;;;;;;;5.78;3.05;;;11.30;81.60;;;;;;5048757;28;20458;-75
2022/01/10 11:42:59;;;;;;;5.30;3.33;;;11.30;81.60;;;;;;5048991;28;20112;-76
2022/01/10 11:45:26;;;;;;;4.30;3.42;;;11.30;81.60;;;;;;5030877;28;20030;-76
2022/01/10 11:48:09;;;;;;;4.40;2.47;;;11.30;81.60;;;;;;5050122;28;20393;-76
2022/01/10 11:50:35;;;;;;;4.85;3.10;;;11.30;81.60;;;;;;5068688;28;20028;-76
2022/01/10 11:53:03;;;;;;;3.78;3.13;;;11.20;81.40;;;;;;5068054;28;20404;-75
2022/01/10 11:55:41;;;;;;;5.50;2.92;;;11.20;81.40;;;;;;5067918;28;20032;-75
2022/01/10 11:58:19;;;;;;;3.50;2.88;;;11.20;81.40;;;;;;5049521;28;20047;-75
2022/01/10 12:00:47;;;;;;;2.60;2.20;;;11.30;81.50;;;;;;5066650;28;20114;-76
2022/01/10 12:03:13;;;;;;;5.25;3.22;;;11.30;81.40;;;;;;5068000;28;20685;-75
2022/01/10 12:05:40;;;;;;;3.50;2.42;;;11.40;81.50;;;;;;5049816;28;20040;-75
2022/01/10 12:08:07;;;;;;;3.78;2.40;;;11.50;81.60;;;;;;5067807;28;20051;-76
2022/01/10 12:10:33;;;;;;;4.47;2.80;;;11.50;81.40;;;;;;5050628;28;20122;-76
2022/01/10 12:13:05;;;;;;;3.50;2.30;;;11.60;81.50;;;;;;5067626;28;20172;-75
2022/01/10 12:15:33;;;;;;;5.90;2.20;;;11.60;81.30;;;;;;5049831;28;20029;-76
2022/01/10 12:17:59;;;;;;;3.28;2.58;;;11.70;81.40;;;;;;5068418;28;20476;-76
2022/01/10 12:20:25;;;;;;;3.83;3.03;;;11.70;81.30;;;;;;5068373;28;20029;-75
2022/01/10 12:22:55;;;;;;;4.82;2.75;;;11.70;81.20;;;;;;5068429;28;20197;-76
2022/01/10 12:25:22;;;;;;;3.80;2.50;;;11.70;81.10;;;;;;5068111;28;20430;-75
2022/01/10 12:27:49;;;;;;;2.53;2.33;;;11.80;81.20;;;;;;5068264;28;20034;-76
2022/01/10 12:30:16;;;;;;;2.22;1.65;;;11.70;81.00;;;;;;5050295;28;20029;-76
2022/01/10 12:32:45;;;;;;;3.15;2.58;;;11.80;81.10;;;;;;5068359;28;20429;-75
2022/01/10 12:35:12;;;;;;;2.90;2.60;;;11.80;81.10;;;;;;5069069;28;20359;-75
2022/01/10 12:37:38;;;;;;;2.85;1.80;;;11.80;81.10;;;;;;5067598;28;20407;-75
2022/01/10 12:40:05;;;;;;;2.20;1.90;;;11.80;81.20;;;;;;5067747;28;20024;-75
2022/01/10 12:42:31;;;;;;;3.10;1.88;;;11.80;81.30;;;;;;5068005;28;20510;-75
2022/01/10 12:44:57;;;;;;;2.95;1.70;;;11.80;81.40;;;;;;5069983;28;20048;-75
2022/01/10 12:47:24;;;;;;;2.42;1.70;;;11.90;81.60;;;;;;5055435;28;20116;-75
2022/01/10 12:49:52;;;;;;;3.45;1.90;;;11.90;81.60;;;;;;5067143;28;20033;-76
2022/01/10 12:52:21;;;;;;;2.60;1.90;;;11.90;81.60;;;;;;5066752;28;20043;-75
2022/01/10 12:54:48;;;;;;;1.40;1.30;;;11.90;81.60;;;;;;5029634;28;20115;-75
2022/01/10 12:57:15;;;;;;;6.68;2.40;;;11.90;81.60;;;;;;5048660;28;20094;-76
2022/01/10 12:59:41;;;;;;;2.80;1.92;;;11.90;81.50;;;;;;5046705;28;20025;-75
2022/01/10 13:02:07;;;;;;;2.97;1.58;;;11.90;81.50;;;;;;5047668;28;20435;-76
2022/01/10 13:04:39;;;;;;;1.98;1.48;;;11.90;81.50;;;;;;5050782;28;20082;-76
2022/01/10 13:07:10;;;;;;;2.33;1.60;;;11.90;81.50;;;;;;5033274;28;20047;-74